Sonora Municipal Airport Sonora US
ICAO: KSOA
IATA: SOA
Category: Medium
Scheduled Services: No

Elevation: 2140 ft
TransAlt. 18000 ft.

Airport Communications:
AWOS 3:118.075
HOUSTON CNTR:125.75
CTAF/UNICOM:122.8

KSOA Zoom In..

Runways:

(A) RW 18 length 4037 ft width 60 ft
---- / hdg 182

(B) RW 36 length 4037 ft width 60 ft
---- / hdg 2

Location; KSOA
Day. 11 / Time. 19.55 Zulu
* Altimeter: 30.10
* Temperature: 37° c. 98.6°f.
* Wind from: 000° Speed 00 kn.
Dewpoint: 15° c.
Visibility: 10 Statute Miles.
Clouds: Clear (automated report).

KSOA 111955Z AUTO 00000KT 10SM CLR 37/15 A3010 RMK AO2

Going to: --> -->


Wind - Calm.

 
 
jpsmedia worldairports.se 2020   terms of use